createdAt,value
2023-02-07T05:00:29.248Z,100647.22
2023-02-07T05:04:40.722Z,100635.34
2023-02-07T05:08:52.192Z,100641.28
2023-02-07T05:13:04.026Z,100645.00
2023-02-07T05:17:15.568Z,100651.69
2023-02-07T05:21:27.068Z,100657.03
2023-02-07T05:25:38.779Z,100661.66
2023-02-07T05:29:50.425Z,100667.19
2023-02-07T05:34:01.904Z,100669.22
2023-02-07T05:38:15.651Z,100670.84
2023-02-07T05:42:27.151Z,100677.75
2023-02-07T05:46:38.618Z,100680.09
2023-02-07T05:50:50.073Z,100685.63
2023-02-07T05:55:01.522Z,100678.72
2023-02-07T05:59:13.083Z,100681.19
2023-02-07T06:03:24.579Z,100677.91
2023-02-07T06:07:36.047Z,100682.03
2023-02-07T06:11:47.485Z,100678.00
2023-02-07T06:15:58.962Z,100685.16
2023-02-07T06:20:11.183Z,100698.72
2023-02-07T06:24:22.813Z,100697.47
2023-02-07T06:28:34.453Z,100701.00
2023-02-07T06:32:46.075Z,100703.69
2023-02-07T06:36:57.663Z,100710.66
2023-02-07T06:41:11.318Z,100700.94
2023-02-07T06:45:22.914Z,100712.84
2023-02-07T06:49:34.466Z,100712.25
2023-02-07T06:53:45.949Z,100714.91
2023-02-07T06:57:57.849Z,100715.84
2023-02-07T07:02:12.174Z,100715.59
2023-02-07T07:06:23.969Z,100715.41
2023-02-07T07:10:35.865Z,100709.09
2023-02-07T07:14:47.415Z,100708.69
2023-02-07T07:18:58.995Z,100717.81
2023-02-07T07:23:10.596Z,100719.44
2023-02-07T07:27:24.984Z,100730.78
2023-02-07T07:31:36.876Z,100724.44
2023-02-07T07:35:49.460Z,100724.50
2023-02-07T07:40:06.993Z,100737.72
2023-02-07T07:44:20.792Z,100746.56
2023-02-07T07:48:36.750Z,100741.13
2023-02-07T07:52:59.097Z,100756.97
2023-02-07T07:57:13.568Z,100768.22
2023-02-07T08:01:34.702Z,100780.00
2023-02-07T08:05:49.652Z,100792.31
2023-02-07T08:10:01.370Z,100787.25
2023-02-07T08:14:12.897Z,100793.94
2023-02-07T08:18:24.489Z,100787.25
2023-02-07T08:22:36.098Z,100794.38
2023-02-07T08:26:47.548Z,100789.66
2023-02-07T08:31:03.969Z,100801.34
2023-02-07T08:35:15.495Z,100795.97
2023-02-07T08:39:26.977Z,100799.22
2023-02-07T08:43:38.905Z,100794.00
2023-02-07T08:47:50.475Z,100793.91
2023-02-07T08:52:02.060Z,100781.72
2023-02-07T08:56:13.894Z,100791.72
2023-02-07T09:00:25.557Z,100800.13
2023-02-07T09:04:37.289Z,100792.50
2023-02-07T09:08:48.872Z,100806.56
2023-02-07T09:13:00.439Z,100795.75
2023-02-07T09:17:11.941Z,100809.66
2023-02-07T09:21:23.822Z,100810.81
2023-02-07T09:25:38.636Z,100815.84
2023-02-07T09:29:50.110Z,100821.97
2023-02-07T09:34:02.714Z,100836.19
2023-02-07T09:38:18.218Z,100834.66
2023-02-07T09:42:55.483Z,100844.72
2023-02-07T09:47:15.665Z,100838.06
2023-02-07T09:51:27.402Z,100831.78
2023-02-07T09:55:49.787Z,100832.63
2023-02-07T10:00:25.011Z,100825.78
2023-02-07T10:04:41.112Z,100823.09
2023-02-07T10:08:55.561Z,100824.00
2023-02-07T10:13:18.132Z,100813.50
2023-02-07T10:18:03.140Z,100813.16
2023-02-07T10:22:27.174Z,100807.75
2023-02-07T10:27:08.000Z,100809.00
2023-02-07T10:31:23.781Z,100814.66
2023-02-07T10:35:37.250Z,100804.00
2023-02-07T10:40:15.612Z,100801.34
2023-02-07T10:44:29.674Z,100792.66
2023-02-07T10:48:41.722Z,100795.50
2023-02-07T10:52:58.871Z,100801.69
2023-02-07T10:57:18.113Z,100804.00
2023-02-07T11:01:33.106Z,100799.78
2023-02-07T11:05:55.551Z,100800.16
2023-02-07T11:10:19.515Z,100797.78
2023-02-07T11:14:31.017Z,100782.41
2023-02-07T11:18:45.872Z,100775.91
2023-02-07T11:22:58.336Z,100783.38
2023-02-07T11:27:22.434Z,100770.88
2023-02-07T11:31:37.565Z,100766.16
2023-02-07T11:36:04.647Z,100766.41
2023-02-07T11:40:19.061Z,100757.22
2023-02-07T11:44:30.991Z,100746.19
2023-02-07T11:48:47.507Z,100745.28
2023-02-07T11:53:01.032Z,100758.13
2023-02-07T11:57:15.642Z,100751.53
2023-02-07T12:01:33.681Z,100758.00
2023-02-07T12:05:50.207Z,100754.22
2023-02-07T12:10:05.619Z,100747.50
2023-02-07T12:14:26.945Z,100744.69
2023-02-07T12:18:43.799Z,100736.63
2023-02-07T12:23:41.276Z,100733.44
2023-02-07T12:27:59.248Z,100726.47
2023-02-07T12:32:26.907Z,100733.31
2023-02-07T12:36:43.706Z,100731.03
2023-02-07T12:41:00.482Z,100738.88
2023-02-07T12:45:18.790Z,100741.75
2023-02-07T12:49:39.243Z,100739.78
2023-02-07T12:54:23.267Z,100739.00
2023-02-07T12:59:00.251Z,100740.09
2023-02-07T13:03:36.634Z,100731.47
2023-02-07T13:07:56.156Z,100723.44
2023-02-07T13:12:18.722Z,100737.41
2023-02-07T13:16:54.327Z,100728.06
2023-02-07T13:21:33.694Z,100725.94
2023-02-07T13:25:49.762Z,100729.81
2023-02-07T13:30:01.871Z,100733.03
2023-02-07T13:34:37.027Z,100728.75
2023-02-07T13:38:58.961Z,100725.56
2023-02-07T13:43:21.508Z,100723.34
2023-02-07T13:47:51.849Z,100719.47
2023-02-07T13:52:05.360Z,100709.22
2023-02-07T13:56:35.586Z,100703.81
2023-02-07T14:00:53.211Z,100699.69
2023-02-07T14:05:20.221Z,100700.13
2023-02-07T14:09:37.482Z,100701.28
2023-02-07T14:13:48.938Z,100700.91
2023-02-07T14:18:06.444Z,100704.38
2023-02-07T14:22:17.900Z,100707.94
2023-02-07T14:26:42.849Z,100698.44
2023-02-07T14:30:54.409Z,100700.09
2023-02-07T14:35:18.002Z,100713.69
2023-02-07T14:39:32.062Z,100699.31
2023-02-07T14:44:07.622Z,100700.03
2023-02-07T14:48:49.628Z,100697.38
2023-02-07T14:53:04.751Z,100693.13
2023-02-07T14:57:53.806Z,100691.34
2023-02-07T15:02:27.284Z,100679.16
2023-02-07T15:06:44.323Z,100690.25
2023-02-07T15:10:57.735Z,100698.50
2023-02-07T15:15:19.415Z,100696.97
2023-02-07T15:19:40.793Z,100712.69
2023-02-07T15:24:01.831Z,100707.63
2023-02-07T15:28:28.341Z,100714.16
2023-02-07T15:32:47.289Z,100710.66
2023-02-07T15:37:19.420Z,100713.56
2023-02-07T15:41:31.500Z,100721.41
2023-02-07T15:45:58.478Z,100729.44
2023-02-07T15:50:23.603Z,100743.97
2023-02-07T15:54:39.892Z,100750.97
2023-02-07T15:58:52.836Z,100753.91
2023-02-07T16:03:07.879Z,100763.75
2023-02-07T16:07:21.935Z,100762.94
2023-02-07T16:11:37.321Z,100772.63
2023-02-07T16:15:57.478Z,100769.00
2023-02-07T16:20:15.801Z,100783.72
2023-02-07T16:24:30.172Z,100793.44
2023-02-07T16:28:41.991Z,100792.09
2023-02-07T16:32:53.571Z,100785.53
2023-02-07T16:37:05.269Z,100796.50
2023-02-07T16:41:31.250Z,100797.16
2023-02-07T16:45:42.798Z,100799.69
2023-02-07T16:49:54.292Z,100789.69
2023-02-07T16:54:05.886Z,100802.16
2023-02-07T16:58:25.463Z,100801.56
2023-02-07T17:02:36.963Z,100802.13
2023-02-07T17:06:49.327Z,100805.66
2023-02-07T17:11:03.272Z,100810.97
2023-02-07T17:15:15.135Z,100809.06
2023-02-07T17:19:28.388Z,100812.81
2023-02-07T17:23:40.422Z,100818.13
2023-02-07T17:27:52.152Z,100817.81
2023-02-07T17:32:03.770Z,100813.66
2023-02-07T17:36:16.049Z,100808.00
2023-02-07T17:40:36.534Z,100825.53
2023-02-07T17:44:48.040Z,100819.47
2023-02-07T17:49:00.860Z,100813.03
2023-02-07T17:53:13.003Z,100809.34
2023-02-07T17:57:24.484Z,100812.09
2023-02-07T18:01:35.918Z,100820.72
2023-02-07T18:05:47.466Z,100809.03
2023-02-07T18:09:58.929Z,100816.84
2023-02-07T18:14:10.433Z,100812.34
2023-02-07T18:18:21.878Z,100811.81
2023-02-07T18:22:33.580Z,100810.44
2023-02-07T18:26:46.343Z,100824.44
2023-02-07T18:30:57.986Z,100820.13
2023-02-07T18:35:10.096Z,100828.78
2023-02-07T18:39:21.580Z,100819.38
2023-02-07T18:43:33.013Z,100827.19
2023-02-07T18:47:44.690Z,100823.31
2023-02-07T18:51:56.138Z,100826.75
2023-02-07T18:56:11.350Z,100820.16
2023-02-07T19:00:23.241Z,100808.50
2023-02-07T19:04:35.344Z,100813.56
2023-02-07T19:08:47.603Z,100818.16
2023-02-07T19:12:59.096Z,100816.47
2023-02-07T19:17:10.748Z,100814.63
2023-02-07T19:21:27.098Z,100817.19
2023-02-07T19:25:48.734Z,100813.75
2023-02-07T19:30:00.258Z,100823.34
2023-02-07T19:34:13.525Z,100813.66
2023-02-07T19:38:24.983Z,100815.75
2023-02-07T19:42:36.581Z,100807.47
2023-02-07T19:46:48.387Z,100810.28
2023-02-07T19:51:05.099Z,100808.81
2023-02-07T19:55:16.555Z,100801.88
2023-02-07T19:59:27.989Z,100803.59
2023-02-07T20:03:40.630Z,100814.69
2023-02-07T20:07:52.433Z,100816.56
2023-02-07T20:12:04.089Z,100810.19
2023-02-07T20:16:19.223Z,100812.16
2023-02-07T20:20:30.723Z,100825.16
2023-02-07T20:24:42.266Z,100805.72
2023-02-07T20:28:55.808Z,100813.41
2023-02-07T20:33:07.259Z,100835.63
2023-02-07T20:37:18.697Z,100828.22
2023-02-07T20:41:30.243Z,100826.66
2023-02-07T20:45:41.733Z,100837.13
2023-02-07T20:49:53.264Z,100838.06
2023-02-07T20:54:06.866Z,100832.84
2023-02-07T20:58:18.469Z,100833.94
2023-02-07T21:02:29.988Z,100833.22
2023-02-07T21:06:42.717Z,100834.50
2023-02-07T21:10:54.422Z,100835.41
2023-02-07T21:15:06.111Z,100830.75
2023-02-07T21:19:17.663Z,100830.72
2023-02-07T21:23:29.164Z,100835.22
2023-02-07T21:27:40.658Z,100841.09
2023-02-07T21:31:52.361Z,100833.59
2023-02-07T21:36:10.904Z,100834.56
2023-02-07T21:40:22.707Z,100842.44
2023-02-07T21:44:34.275Z,100842.44
2023-02-07T21:48:46.733Z,100838.25
2023-02-07T21:52:58.208Z,100833.09
2023-02-07T21:57:15.001Z,100825.53
2023-02-07T22:01:28.210Z,100824.69
2023-02-07T22:05:39.728Z,100815.63
2023-02-07T22:09:52.326Z,100814.78
2023-02-07T22:14:04.372Z,100817.34
2023-02-07T22:18:16.236Z,100805.38
2023-02-07T22:22:27.703Z,100797.06
2023-02-07T22:26:39.814Z,100794.78
